Ticket #3513: perl_stream.txt

File perl_stream.txt, 9.4 KB (added by rcgroot@…, 10 years ago)

Network sniff of Perl code uploading and succeeding

Line 
1POST /api/0.6/gpx/create HTTP/1.1
2TE: deflate,gzip;q=0.3
3Connection: TE, close
4Authorization: Basic cmNncm9vdEBnbWFpbC5jb206cmNncm9vdHB3ZA==
5Host: api06.dev.openstreetmap.org
6User-Agent: libwww-perl/5.836
7Content-Length: 8927
8Content-Type: multipart/form-data; boundary=xYzZY
9
10--xYzZY
11Content-Disposition: form-data; name="file"; filename="rondjemeer.gpx"
12Content-Type: text/plain
13
14<?xml version='1.0' encoding='UTF-8' standalone='yes' ?>
15<gpx version="1.1" creator="nl.sogeti.android.gpstracker" xsi:schemaLocation="http://www.topografix.com/GPX/1/1 http://www.topografix.com/gpx/1/1/gpx.xsd" xmlns="http://www.topografix.com/GPX/1/1" xmlns:xsi="http://www.w3.org/2001/XMLSchema-instance" xmlns:gpx10="http://www.topografix.com/GPX/1/0" xmlns:ogt10="http://gpstracker.android.sogeti.nl/GPX/1/0">
16<metadata>
17<time>2011-02-03T20:20:58Z</time>
18</metadata>
19<trk>
20<name>rondje meer</name>
21<trkseg>
22<trkpt lat="-38.18837666666666" lon="176.32698333333332">
23<ele>0.0</ele>
24<time>2011-02-03T20:21:35Z</time>
25<extensions />
26</trkpt>
27<trkpt lat="-38.18842333333334" lon="176.32688833333336">
28<ele>0.0</ele>
29<time>2011-02-03T20:21:46Z</time>
30<extensions />
31</trkpt>
32<trkpt lat="-38.188509999999994" lon="176.326905">
33<ele>0.0</ele>
34<time>2011-02-03T20:21:55Z</time>
35<extensions />
36</trkpt>
37<trkpt lat="-38.18861666666667" lon="176.32693">
38<ele>0.0</ele>
39<time>2011-02-03T20:22:01Z</time>
40<extensions />
41</trkpt>
42<trkpt lat="-38.188743333333335" lon="176.32695833333335">
43<ele>0.0</ele>
44<time>2011-02-03T20:22:03Z</time>
45<extensions />
46</trkpt>
47<trkpt lat="-38.18886166666667" lon="176.32695166666664">
48<ele>0.0</ele>
49<time>2011-02-03T20:22:05Z</time>
50<extensions />
51</trkpt>
52<trkpt lat="-38.18897166666667" lon="176.32692666666668">
53<ele>0.0</ele>
54<time>2011-02-03T20:22:08Z</time>
55<extensions />
56</trkpt>
57<trkpt lat="-38.189121666666665" lon="176.32688">
58<ele>0.0</ele>
59<time>2011-02-03T20:22:10Z</time>
60<extensions />
61</trkpt>
62<trkpt lat="-38.189265" lon="176.32693166666667">
63<ele>0.0</ele>
64<time>2011-02-03T20:22:12Z</time>
65<extensions />
66</trkpt>
67<trkpt lat="-38.18938" lon="176.3268666666667">
68<ele>0.0</ele>
69<time>2011-02-03T20:22:15Z</time>
70<extensions />
71</trkpt>
72<trkpt lat="-38.189475" lon="176.32688166666668">
73<ele>0.0</ele>
74<time>2011-02-03T20:22:17Z</time>
75<extensions />
76</trkpt>
77<trkpt lat="-38.18957666666667" lon="176.32688166666668">
78<ele>0.0</ele>
79<time>2011-02-03T20:22:18Z</time>
80<extensions />
81</trkpt>
82<trkpt lat="-38.189634999999996" lon="176.32689333333335">
83<ele>0.0</ele>
84<time>2011-02-03T20:22:19Z</time>
85<extensions />
86</trkpt>
87<trkpt lat="-38.189688333333336" lon="176.326915">
88<ele>0.0</ele>
89<time>2011-02-03T20:22:20Z</time>
90<extensions />
91</trkpt>
92<trkpt lat="-38.18983166666667" lon="176.3269166666667">
93<ele>0.0</ele>
94<time>2011-02-03T20:22:22Z</time>
95<extensions />
96</trkpt>
97<trkpt lat="-38.190018333333335" lon="176.32685833333332">
98<ele>0.0</ele>
99<time>2011-02-03T20:22:25Z</time>
100<extensions />
101</trkpt>
102<trkpt lat="-38.19016" lon="176.32683500000002">
103<ele>0.0</ele>
104<time>2011-02-03T20:22:28Z</time>
105<extensions />
106</trkpt>
107<trkpt lat="-38.190235" lon="176.32679833333333">
108<ele>0.0</ele>
109<time>2011-02-03T20:22:30Z</time>
110<extensions />
111</trkpt>
112<trkpt lat="-38.19034166666667" lon="176.32675666666668">
113<ele>0.0</ele>
114<time>2011-02-03T20:22:31Z</time>
115<extensions />
116</trkpt>
117<trkpt lat="-38.19049166666667" lon="176.326625">
118<ele>0.0</ele>
119<time>2011-02-03T20:22:34Z</time>
120<extensions />
121</trkpt>
122<trkpt lat="-38.19058666666667" lon="176.32656666666668">
123<ele>0.0</ele>
124<time>2011-02-03T20:22:36Z</time>
125<extensions />
126</trkpt>
127<trkpt lat="-38.19068166666667" lon="176.32646999999997">
128<ele>0.0</ele>
129<time>2011-02-03T20:22:38Z</time>
130<extensions />
131</trkpt>
132<trkpt lat="-38.19082" lon="176.32638666666668">
133<ele>0.0</ele>
134<time>2011-02-03T20:22:41Z</time>
135<extensions />
136</trkpt>
137<trkpt lat="-38.190981666666666" lon="176.326205">
138<ele>0.0</ele>
139<time>2011-02-03T20:22:45Z</time>
140<extensions />
141</trkpt>
142<trkpt lat="-38.191048333333335" lon="176.32606">
143<ele>0.0</ele>
144<time>2011-02-03T20:22:48Z</time>
145<extensions />
146</trkpt>
147<trkpt lat="-38.191230000000004" lon="176.3257">
148<ele>0.0</ele>
149<time>2011-02-03T20:22:55Z</time>
150<extensions />
151</trkpt>
152<trkpt lat="-38.19134833333333" lon="176.32554666666667">
153<ele>0.0</ele>
154<time>2011-02-03T20:23:00Z</time>
155<extensions />
156</trkpt>
157<trkpt lat="-38.19146166666667" lon="176.32550833333335">
158<ele>0.0</ele>
159<time>2011-02-03T20:23:03Z</time>
160<extensions />
161</trkpt>
162<trkpt lat="-38.19164" lon="176.325435">
163<ele>0.0</ele>
164<time>2011-02-03T20:23:06Z</time>
165<extensions />
166</trkpt>
167<trkpt lat="-38.19179833333333" lon="176.32534666666663">
168<ele>0.0</ele>
169<time>2011-02-03T20:23:09Z</time>
170<extensions />
171</trkpt>
172<trkpt lat="-38.191943333333334" lon="176.32530666666668">
173<ele>0.0</ele>
174<time>2011-02-03T20:23:11Z</time>
175<extensions />
176</trkpt>
177<trkpt lat="-38.192" lon="176.32531666666668">
178<ele>0.0</ele>
179<time>2011-02-03T20:23:12Z</time>
180<extensions />
181</trkpt>
182<trkpt lat="-38.192249999999994" lon="176.32529000000002">
183<ele>0.0</ele>
184<time>2011-02-03T20:23:16Z</time>
185<extensions />
186</trkpt>
187<trkpt lat="-38.192366666666665" lon="176.32531833333334">
188<ele>0.0</ele>
189<time>2011-02-03T20:23:17Z</time>
190<extensions />
191</trkpt>
192<trkpt lat="-38.19259833333333" lon="176.32546166666665">
193<ele>0.0</ele>
194<time>2011-02-03T20:23:21Z</time>
195<extensions />
196</trkpt>
197<trkpt lat="-38.19272" lon="176.325615">
198<ele>0.0</ele>
199<time>2011-02-03T20:23:24Z</time>
200<extensions />
201</trkpt>
202<trkpt lat="-38.19286833333333" lon="176.325795">
203<ele>0.0</ele>
204<time>2011-02-03T20:23:27Z</time>
205<extensions />
206</trkpt>
207<trkpt lat="-38.193020000000004" lon="176.32579666666666">
208<ele>0.0</ele>
209<time>2011-02-03T20:23:30Z</time>
210<extensions />
211</trkpt>
212<trkpt lat="-38.19316666666667" lon="176.32576833333331">
213<ele>0.0</ele>
214<time>2011-02-03T20:23:32Z</time>
215<extensions />
216</trkpt>
217<trkpt lat="-38.19329666666667" lon="176.32571833333333">
218<ele>0.0</ele>
219<time>2011-02-03T20:23:35Z</time>
220<extensions />
221</trkpt>
222<trkpt lat="-38.19343166666667" lon="176.32575666666665">
223<ele>0.0</ele>
224<time>2011-02-03T20:23:38Z</time>
225<extensions />
226</trkpt>
227<trkpt lat="-38.19356666666667" lon="176.32576166666664">
228<ele>0.0</ele>
229<time>2011-02-03T20:23:40Z</time>
230<extensions />
231</trkpt>
232<trkpt lat="-38.19377333333333" lon="176.32591999999997">
233<ele>0.0</ele>
234<time>2011-02-03T20:23:44Z</time>
235<extensions />
236</trkpt>
237<trkpt lat="-38.19412166666667" lon="176.3257716666667">
238<ele>0.0</ele>
239<time>2011-02-03T20:23:51Z</time>
240<extensions />
241</trkpt>
242<trkpt lat="-38.194355" lon="176.32569666666666">
243<ele>0.0</ele>
244<time>2011-02-03T20:23:55Z</time>
245<extensions />
246</trkpt>
247<trkpt lat="-38.194536666666664" lon="176.32573833333336">
248<ele>0.0</ele>
249<time>2011-02-03T20:23:57Z</time>
250<extensions />
251</trkpt>
252<trkpt lat="-38.19462166666666" lon="176.32575666666665">
253<ele>0.0</ele>
254<time>2011-02-03T20:23:59Z</time>
255<extensions />
256</trkpt>
257<trkpt lat="-38.19479666666667" lon="176.32580333333334">
258<ele>0.0</ele>
259<time>2011-02-03T20:24:02Z</time>
260<extensions />
261</trkpt>
262<trkpt lat="-38.19502333333333" lon="176.32594333333333">
263<ele>0.0</ele>
264<time>2011-02-03T20:24:06Z</time>
265<extensions />
266</trkpt>
267<trkpt lat="-38.19511166666667" lon="176.32598833333336">
268<ele>0.0</ele>
269<time>2011-02-03T20:24:09Z</time>
270<extensions />
271</trkpt>
272<trkpt lat="-38.19517666666666" lon="176.3259683333333">
273<ele>0.0</ele>
274<time>2011-02-03T20:24:11Z</time>
275<extensions />
276</trkpt>
277<trkpt lat="-38.19512833333333" lon="176.32587666666666">
278<ele>0.0</ele>
279<time>2011-02-03T20:24:17Z</time>
280<extensions />
281</trkpt>
282<trkpt lat="-38.195100000000004" lon="176.32566666666668">
283<ele>0.0</ele>
284<time>2011-02-03T20:24:22Z</time>
285<extensions />
286</trkpt>
287<trkpt lat="-38.19524" lon="176.32527166666665">
288<ele>0.0</ele>
289<time>2011-02-03T20:24:29Z</time>
290<extensions />
291</trkpt>
292<trkpt lat="-38.195481666666666" lon="176.32495">
293<ele>0.0</ele>
294<time>2011-02-03T20:24:36Z</time>
295<extensions />
296</trkpt>
297<trkpt lat="-38.195636666666665" lon="176.32463833333333">
298<ele>0.0</ele>
299<time>2011-02-03T20:24:41Z</time>
300<extensions />
301</trkpt>
302<trkpt lat="-38.195751666666666" lon="176.32451666666668">
303<ele>0.0</ele>
304<time>2011-02-03T20:24:45Z</time>
305<extensions />
306</trkpt>
307<trkpt lat="-38.195863333333335" lon="176.3244533333333">
308<ele>0.0</ele>
309<time>2011-02-03T20:24:47Z</time>
310<extensions />
311</trkpt>
312<trkpt lat="-38.19600166666667" lon="176.3243316666667">
313<ele>0.0</ele>
314<time>2011-02-03T20:24:50Z</time>
315<extensions />
316</trkpt>
317<trkpt lat="-38.19613666666667" lon="176.32416">
318<ele>0.0</ele>
319<time>2011-02-03T20:24:54Z</time>
320<extensions />
321</trkpt>
322<trkpt lat="-38.196286666666666" lon="176.32411833333336">
323<ele>0.0</ele>
324<time>2011-02-03T20:24:58Z</time>
325<extensions />
326</trkpt>
327<trkpt lat="-38.19651666666667" lon="176.32419000000002">
328<ele>0.0</ele>
329<time>2011-02-03T20:25:04Z</time>
330<extensions />
331</trkpt>
332<trkpt lat="-38.19656166666667" lon="176.32427">
333<ele>0.0</ele>
334<time>2011-02-03T20:25:06Z</time>
335<extensions />
336</trkpt>
337</trkseg>
338</trk>
339</gpx>
340--xYzZY
341Content-Disposition: form-data; name="description"
342
343rondje meer
344--xYzZY
345Content-Disposition: form-data; name="tags"
346
347fishing,sight
348--xYzZY
349Content-Disposition: form-data; name="visibility"
350
351trackable
352--xYzZY--
353HTTP/1.1 200 OK
354Date: Sat, 05 Feb 2011 16:04:37 GMT
355Server: Apache/2.2.14 (Ubuntu)
356X-Powered-By: Phusion Passenger (mod_rails/mod_rack) 3.0.1
357Vary: Accept-Language
358ETag: "eb160de1de89d9058fcb0b968dbbbd68"
359Content-Language: en
360X-Runtime: 577
361Cache-Control: private, max-age=0, must-revalidate
362Set-Cookie: _osm_session=1b507a8c7ec328c37b65d60372afb3b4; path=/; HttpOnly
363Content-Length: 3
364Status: 200
365Connection: close
366Content-Type: text/plain; charset=utf-8
367
368117